createdAt,value
2023-04-27T00:02:39.157Z,101019.94
2023-04-27T00:05:43.605Z,100913.44
2023-04-27T00:08:51.665Z,100881.00
2023-04-27T00:11:30.713Z,100846.47
2023-04-27T00:14:30.248Z,100905.53
2023-04-27T00:17:12.877Z,100838.13
2023-04-27T00:20:47.849Z,100852.19
2023-04-27T00:23:05.979Z,100848.19
2023-04-27T00:25:47.600Z,101024.72
2023-04-27T00:28:40.046Z,100947.97
2023-04-27T00:38:40.636Z,100872.34
2023-04-27T00:44:17.113Z,100766.88
2023-04-27T00:47:09.262Z,100853.34
2023-04-27T00:52:55.807Z,100864.56
2023-04-27T00:55:35.240Z,100822.91
2023-04-27T00:58:08.795Z,100934.88
2023-04-27T01:01:29.084Z,101025.72
2023-04-27T01:04:12.277Z,101013.16
2023-04-27T01:06:39.525Z,101015.13
2023-04-27T01:09:06.548Z,101007.34
2023-04-27T01:11:33.975Z,100961.84
2023-04-27T01:14:22.158Z,101028.50
2023-04-27T01:17:23.233Z,101019.44
2023-04-27T01:20:07.562Z,100995.19
2023-04-27T01:22:34.642Z,101014.78
2023-04-27T01:25:01.865Z,100971.19
2023-04-27T01:27:52.028Z,101028.06
2023-04-27T01:30:56.058Z,101009.81
2023-04-27T01:33:52.016Z,101034.41
2023-04-27T01:36:19.282Z,101020.97
2023-04-27T01:38:46.333Z,101002.72
2023-04-27T01:41:14.074Z,101017.44
2023-04-27T01:43:45.669Z,101026.56
2023-04-27T01:46:34.033Z,101020.28
2023-04-27T01:49:14.758Z,101017.84
2023-04-27T01:51:43.421Z,101018.97
2023-04-27T01:54:10.822Z,100951.94
2023-04-27T01:56:38.141Z,101044.50
2023-04-27T01:59:05.439Z,101018.78
2023-04-27T02:01:53.103Z,100922.00
2023-04-27T02:04:34.267Z,100984.94
2023-04-27T02:07:01.592Z,101058.97
2023-04-27T02:09:28.864Z,101036.88
2023-04-27T02:11:56.164Z,101064.66
2023-04-27T02:14:43.081Z,101035.53
2023-04-27T02:17:23.616Z,101071.19
2023-04-27T02:19:50.670Z,101050.41
2023-04-27T02:22:17.969Z,101069.00
2023-04-27T02:24:44.941Z,101070.81
2023-04-27T02:27:12.195Z,101044.53
2023-04-27T02:30:01.021Z,101020.28
2023-04-27T02:32:42.357Z,101065.13
2023-04-27T02:35:10.264Z,101055.31
2023-04-27T02:37:38.338Z,101071.78
2023-04-27T02:40:09.624Z,100911.94
2023-04-27T02:42:43.715Z,100924.16
2023-04-27T02:45:12.048Z,100919.94
2023-04-27T02:47:39.845Z,100995.03
2023-04-27T02:50:07.893Z,101090.06
2023-04-27T02:52:36.376Z,101024.75
2023-04-27T02:55:04.148Z,100898.22
2023-04-27T02:57:52.118Z,101035.44
2023-04-27T03:00:53.067Z,101057.72
2023-04-27T03:03:59.775Z,101073.50
2023-04-27T03:06:47.254Z,101082.97
2023-04-27T03:09:15.949Z,101105.09
2023-04-27T03:11:43.523Z,101086.28
2023-04-27T03:14:31.066Z,101061.91
2023-04-27T03:17:11.876Z,101112.56
2023-04-27T03:19:40.113Z,101083.63
2023-04-27T03:22:07.196Z,101090.34
2023-04-27T03:24:35.700Z,101034.09
2023-04-27T03:27:03.494Z,101103.34
2023-04-27T03:29:51.069Z,101046.31
2023-04-27T03:32:31.765Z,101088.75
2023-04-27T03:35:01.417Z,101086.88
2023-04-27T03:37:28.599Z,101090.56
2023-04-27T03:39:57.383Z,101104.56
2023-04-27T03:42:25.196Z,101107.66
2023-04-27T03:44:53.113Z,101047.63
2023-04-27T03:47:20.394Z,101105.06
2023-04-27T03:49:47.672Z,101119.75
2023-04-27T03:52:15.393Z,101056.34
2023-04-27T03:54:43.280Z,100912.75
2023-04-27T03:57:12.336Z,101021.84
2023-04-27T03:59:40.041Z,101005.66
2023-04-27T04:02:27.290Z,101110.19
2023-04-27T04:05:28.192Z,101000.06
2023-04-27T04:08:10.427Z,100936.28
2023-04-27T04:10:38.057Z,101064.66
2023-04-27T04:13:25.146Z,100916.19
2023-04-27T04:16:16.324Z,101030.50
2023-04-27T04:18:43.686Z,101139.75
2023-04-27T04:21:13.727Z,101104.41
2023-04-27T04:24:01.102Z,101132.09
2023-04-27T04:26:42.072Z,101124.53
2023-04-27T04:29:29.120Z,101150.59
2023-04-27T04:32:09.892Z,101141.56
2023-04-27T04:34:37.741Z,101162.09
2023-04-27T04:37:05.564Z,101149.31
2023-04-27T04:39:33.374Z,101174.00
2023-04-27T04:42:00.557Z,101142.41
2023-04-27T04:44:30.326Z,101176.53
2023-04-27T04:46:57.755Z,101160.03
2023-04-27T04:49:26.675Z,101119.41
2023-04-27T04:51:53.724Z,101151.69
2023-04-27T04:54:24.497Z,101158.94
2023-04-27T04:56:51.547Z,101149.31
2023-04-27T04:59:18.842Z,101163.13
2023-04-27T05:02:06.147Z,101185.59
2023-04-27T05:04:46.851Z,101188.63
2023-04-27T05:07:15.137Z,101184.34
2023-04-27T05:09:42.771Z,101175.91
2023-04-27T05:12:30.196Z,101113.56
2023-04-27T05:15:31.191Z,101186.75
2023-04-27T05:18:11.888Z,101186.66
2023-04-27T05:20:39.228Z,101204.84
2023-04-27T05:23:06.243Z,101204.22
2023-04-27T05:25:35.075Z,101219.34
2023-04-27T05:28:23.164Z,101196.03
2023-04-27T05:31:03.877Z,101207.34
2023-04-27T05:33:31.137Z,101207.09
2023-04-27T05:35:59.812Z,101189.19
2023-04-27T05:38:26.970Z,101130.31
2023-04-27T05:40:58.782Z,101223.59
2023-04-27T05:43:28.260Z,101238.69
2023-04-27T05:46:15.204Z,101191.81
2023-04-27T05:49:16.230Z,101228.63
2023-04-27T05:52:17.220Z,101205.84
2023-04-27T05:55:18.232Z,101232.31
2023-04-27T05:58:07.829Z,101219.63
2023-04-27T06:00:36.962Z,101228.72
2023-04-27T06:03:04.370Z,101144.19
2023-04-27T06:05:51.148Z,101188.81
2023-04-27T06:08:31.925Z,101225.06
2023-04-27T06:11:06.859Z,101164.66
2023-04-27T06:13:54.192Z,101209.03
2023-04-27T06:16:55.144Z,101238.16
2023-04-27T06:19:35.757Z,101236.91
2023-04-27T06:22:04.059Z,101231.03
2023-04-27T06:24:51.161Z,101199.06
2023-04-27T06:27:52.193Z,101246.53
2023-04-27T06:30:53.206Z,101225.81
2023-04-27T06:33:54.194Z,101257.00
2023-04-27T06:36:23.068Z,101269.06
2023-04-27T06:38:50.047Z,101243.31
2023-04-27T06:41:17.090Z,101235.53
2023-04-27T06:43:44.023Z,101232.16
2023-04-27T06:46:31.268Z,101272.13
2023-04-27T06:49:11.971Z,101269.28
2023-04-27T06:51:39.108Z,101264.47
2023-04-27T06:54:06.152Z,101257.28
2023-04-27T06:56:33.251Z,101259.09
2023-04-27T06:59:00.489Z,101273.81
2023-04-27T07:01:27.584Z,101281.88
2023-04-27T07:04:15.303Z,101255.06
2023-04-27T07:06:56.498Z,101254.31
2023-04-27T07:09:27.520Z,101258.09
2023-04-27T07:12:15.164Z,101233.84
2023-04-27T07:15:18.201Z,101249.81
2023-04-27T07:18:08.624Z,101279.41
2023-04-27T07:20:37.926Z,101258.13
2023-04-27T07:23:04.914Z,101286.38
2023-04-27T07:25:31.958Z,101252.78
2023-04-27T07:28:19.211Z,101268.63
2023-04-27T07:31:14.587Z,101249.09
2023-04-27T07:34:08.190Z,101270.47
2023-04-27T07:37:09.360Z,101266.84
2023-04-27T07:39:44.080Z,101278.91
2023-04-27T07:42:11.667Z,101275.69
2023-04-27T07:44:38.678Z,101271.69
2023-04-27T07:47:06.724Z,101230.50
2023-04-27T07:49:37.502Z,101174.53
2023-04-27T07:52:18.242Z,101256.03
2023-04-27T07:54:58.988Z,101281.94
2023-04-27T07:57:26.208Z,101233.69
2023-04-27T07:59:53.714Z,101263.63
2023-04-27T08:02:20.725Z,101259.31
2023-04-27T08:04:49.071Z,101235.56
2023-04-27T08:07:17.647Z,101284.53
2023-04-27T08:09:45.053Z,101250.13
2023-04-27T08:12:12.091Z,101281.94
2023-04-27T08:14:39.164Z,101213.00
2023-04-27T08:17:06.438Z,101217.44
2023-04-27T08:19:33.585Z,101276.53
2023-04-27T08:22:01.212Z,101232.13
2023-04-27T08:24:48.246Z,101282.50
2023-04-27T08:27:53.232Z,101268.41
2023-04-27T08:30:55.239Z,101290.38
2023-04-27T08:33:56.510Z,101287.63
2023-04-27T08:36:57.272Z,101277.09
2023-04-27T08:39:37.922Z,101268.63
2023-04-27T08:42:12.295Z,101290.75
2023-04-27T08:44:43.574Z,101288.91
2023-04-27T08:47:11.484Z,101264.38
2023-04-27T08:49:38.852Z,101253.22
2023-04-27T08:52:12.789Z,101269.00
2023-04-27T08:54:39.840Z,101250.00
2023-04-27T08:57:13.973Z,101254.91
2023-04-27T08:59:41.509Z,101288.63
2023-04-27T09:02:36.391Z,101295.44
2023-04-27T09:05:46.422Z,101286.44
2023-04-27T09:08:49.569Z,101273.28
2023-04-27T09:11:29.675Z,101204.06
2023-04-27T09:13:58.719Z,101292.78
2023-04-27T09:16:28.506Z,101255.34
2023-04-27T09:19:08.282Z,101178.13
2023-04-27T09:22:23.427Z,101289.91
2023-04-27T09:25:04.219Z,101223.00
2023-04-27T09:27:57.468Z,101188.28
2023-04-27T09:31:05.293Z,101268.94
2023-04-27T09:33:57.604Z,101245.34
2023-04-27T09:36:25.912Z,101279.75
2023-04-27T09:38:53.573Z,101249.28
2023-04-27T09:41:21.802Z,101270.47
2023-04-27T09:43:50.678Z,101277.63
2023-04-27T09:46:18.229Z,101270.47
2023-04-27T09:48:45.262Z,101225.31
2023-04-27T09:51:15.086Z,101248.41
2023-04-27T09:53:58.853Z,101224.44
2023-04-27T09:56:51.183Z,101258.19
2023-04-27T09:59:57.222Z,101262.03
2023-04-27T10:02:26.917Z,101267.03
2023-04-27T10:05:51.310Z,101234.00
2023-04-27T10:08:53.284Z,101252.00
2023-04-27T10:11:40.904Z,101247.44
2023-04-27T10:14:11.184Z,101247.56
2023-04-27T10:16:58.860Z,101241.28
2023-04-27T10:19:26.276Z,101222.63
2023-04-27T10:22:03.715Z,101196.50
2023-04-27T10:24:41.362Z,101255.66
2023-04-27T10:27:11.584Z,101254.53
2023-04-27T10:30:00.355Z,101246.56
2023-04-27T10:33:06.374Z,101237.25
2023-04-27T10:35:56.661Z,101231.47
2023-04-27T10:38:29.495Z,101218.75
2023-04-27T10:41:00.390Z,101213.78
2023-04-27T10:43:29.936Z,101228.88
2023-04-27T10:46:14.088Z,101242.25
2023-04-27T10:48:41.802Z,101242.72
2023-04-27T10:51:30.298Z,101232.72
2023-04-27T10:54:12.485Z,101236.06
2023-04-27T10:56:40.807Z,101227.88
2023-04-27T10:59:08.529Z,101232.81
2023-04-27T11:01:55.382Z,101217.00
2023-04-27T11:04:56.400Z,101221.81
2023-04-27T11:07:39.098Z,101231.59
2023-04-27T11:10:08.555Z,101185.47
2023-04-27T11:12:39.157Z,101224.50
2023-04-27T11:15:07.378Z,101198.84
2023-04-27T11:17:54.410Z,101215.63
2023-04-27T11:20:34.906Z,101223.44
2023-04-27T11:23:01.845Z,101185.13
2023-04-27T11:25:30.120Z,101195.78
2023-04-27T11:28:11.353Z,101157.88
2023-04-27T11:31:13.427Z,101174.03
2023-04-27T11:33:55.985Z,101197.84
2023-04-27T11:36:25.187Z,101205.66
2023-04-27T11:38:57.888Z,101205.91
2023-04-27T11:41:33.798Z,101210.22
2023-04-27T11:44:07.619Z,101142.75
2023-04-27T11:46:58.342Z,101211.78
2023-04-27T11:50:03.426Z,101187.91
2023-04-27T11:52:49.043Z,101175.25
2023-04-27T11:55:16.439Z,101161.97
2023-04-27T11:57:43.720Z,101154.47
2023-04-27T12:00:11.457Z,101197.53
2023-04-27T12:02:43.706Z,101192.47
2023-04-27T12:05:31.444Z,101167.81
2023-04-27T12:08:12.927Z,101149.09
2023-04-27T12:10:40.988Z,101168.56
2023-04-27T12:13:08.230Z,101166.94
2023-04-27T12:15:35.224Z,101183.78
2023-04-27T12:18:02.419Z,101194.22
2023-04-27T12:20:29.681Z,101175.56
2023-04-27T12:22:58.049Z,101176.41
2023-04-27T12:25:25.187Z,101192.47
2023-04-27T12:28:12.417Z,101175.63
2023-04-27T12:31:13.453Z,101155.00
2023-04-27T12:33:54.259Z,101156.78
2023-04-27T12:36:21.330Z,101135.19
2023-04-27T12:38:48.423Z,101164.22
2023-04-27T12:41:15.753Z,101136.94
2023-04-27T12:43:43.784Z,101164.47
2023-04-27T12:46:11.675Z,101140.81
2023-04-27T12:48:41.868Z,101067.22
2023-04-27T12:51:29.399Z,101132.47
2023-04-27T12:54:30.456Z,101135.28
2023-04-27T12:57:13.081Z,101083.25
2023-04-27T12:59:41.626Z,101112.69
2023-04-27T13:02:09.980Z,101141.88
2023-04-27T13:04:57.500Z,101130.72
2023-04-27T13:07:51.402Z,101148.72
2023-04-27T13:10:32.179Z,101139.25
2023-04-27T13:13:12.577Z,101127.59
2023-04-27T13:16:06.428Z,101100.69
2023-04-27T13:18:55.657Z,101111.31
2023-04-27T13:21:23.324Z,101121.41
2023-04-27T13:23:51.325Z,101104.59
2023-04-27T13:26:19.199Z,101034.13
2023-04-27T13:29:06.407Z,101140.03
2023-04-27T13:32:07.453Z,101114.38
2023-04-27T13:34:48.105Z,101128.81
2023-04-27T13:37:15.066Z,101139.44
2023-04-27T13:39:42.070Z,101091.66
2023-04-27T13:42:09.112Z,101115.56
2023-04-27T13:44:36.164Z,101086.38
2023-04-27T13:47:23.463Z,101124.38
2023-04-27T13:50:27.550Z,101143.81
2023-04-27T13:53:28.472Z,101108.22
2023-04-27T13:56:09.121Z,101138.56
2023-04-27T13:58:37.179Z,101116.34
2023-04-27T14:01:11.837Z,100999.63
2023-04-27T14:03:59.586Z,101051.78
2023-04-27T14:07:00.458Z,101116.19
2023-04-27T14:10:01.481Z,101132.16
2023-04-27T14:13:03.439Z,101103.84
2023-04-27T14:16:04.531Z,101091.44
2023-04-27T14:18:55.994Z,101105.59
2023-04-27T14:21:23.091Z,101126.78
2023-04-27T14:23:50.044Z,101109.81
2023-04-27T14:26:17.082Z,101104.00
2023-04-27T14:29:04.464Z,101101.28
2023-04-27T14:31:46.320Z,101075.66
2023-04-27T14:34:17.912Z,101097.94
2023-04-27T14:36:46.120Z,101099.50
2023-04-27T14:39:13.508Z,101110.72
2023-04-27T14:42:00.483Z,101061.06
2023-04-27T14:44:41.229Z,101090.78
2023-04-27T14:47:08.305Z,101100.91
2023-04-27T14:49:35.445Z,101028.81
2023-04-27T14:52:22.458Z,101111.66
2023-04-27T14:55:24.501Z,101111.78
2023-04-27T14:58:26.481Z,101082.69
2023-04-27T15:01:27.562Z,101110.53
2023-04-27T15:04:28.681Z,101112.38
2023-04-27T15:07:29.510Z,101056.09
2023-04-27T15:10:11.332Z,101072.16
2023-04-27T15:12:38.446Z,101032.06
2023-04-27T15:15:08.051Z,100980.81
2023-04-27T15:17:37.561Z,100966.56
2023-04-27T15:20:05.999Z,101072.09
2023-04-27T15:22:33.132Z,101040.28
2023-04-27T15:25:00.323Z,101088.56
2023-04-27T15:27:48.518Z,101102.97
2023-04-27T15:30:49.531Z,101097.47
2023-04-27T15:33:45.939Z,101071.72
2023-04-27T15:36:12.930Z,101100.41
2023-04-27T15:38:41.917Z,101008.88
2023-04-27T15:41:28.537Z,101077.97
2023-04-27T15:44:30.964Z,101073.59
2023-04-27T15:47:22.721Z,101105.47
2023-04-27T15:50:09.576Z,101017.25
2023-04-27T15:53:10.521Z,101108.09
2023-04-27T15:56:11.616Z,101075.16
2023-04-27T15:59:13.713Z,101076.97
2023-04-27T16:02:14.545Z,101077.91
2023-04-27T16:05:15.610Z,101074.63
2023-04-27T16:07:56.942Z,101075.38
2023-04-27T16:10:24.099Z,101040.09
2023-04-27T16:12:51.542Z,100962.50
2023-04-27T16:15:19.073Z,100986.25
2023-04-27T16:17:46.934Z,101009.25
2023-04-27T16:20:14.360Z,101093.41
2023-04-27T16:23:01.702Z,100988.97
2023-04-27T16:25:42.562Z,100999.50
2023-04-27T16:28:29.591Z,101077.25
2023-04-27T16:31:31.603Z,101099.41
2023-04-27T16:34:12.144Z,101104.00
2023-04-27T16:36:39.135Z,101086.41
2023-04-27T16:39:06.095Z,101072.19
2023-04-27T16:41:33.538Z,101074.81
2023-04-27T16:44:00.637Z,101064.19
2023-04-27T16:46:27.734Z,101103.97
2023-04-27T16:49:14.900Z,101105.81
2023-04-27T16:52:15.828Z,101065.09
2023-04-27T16:55:16.539Z,101099.66
2023-04-27T16:57:56.914Z,101040.38
2023-04-27T17:00:23.865Z,101101.41
2023-04-27T17:02:50.894Z,101074.84
2023-04-27T17:05:37.549Z,101113.84
2023-04-27T17:08:38.773Z,101086.41
2023-04-27T17:11:44.703Z,101113.84
2023-04-27T17:14:38.356Z,101116.47
2023-04-27T17:17:10.600Z,101044.84
2023-04-27T17:19:37.673Z,101111.22
2023-04-27T17:22:24.560Z,101066.06
2023-04-27T17:25:05.785Z,101105.91
2023-04-27T17:27:52.632Z,101098.78
2023-04-27T17:30:39.396Z,101113.84
2023-04-27T17:33:07.302Z,101122.72
2023-04-27T17:35:55.608Z,101106.75
2023-04-27T17:38:36.483Z,101075.78
2023-04-27T17:41:04.248Z,101109.41
2023-04-27T17:43:31.472Z,101130.63
2023-04-27T17:46:21.648Z,101122.66
2023-04-27T17:49:28.593Z,101120.88
2023-04-27T17:52:29.676Z,101107.63
2023-04-27T17:55:25.973Z,101102.22
2023-04-27T17:57:52.984Z,101027.78
2023-04-27T18:00:22.111Z,101132.28
2023-04-27T18:02:49.953Z,101126.09
2023-04-27T18:05:38.849Z,101080.75
2023-04-27T18:08:42.590Z,101125.84
2023-04-27T18:11:43.634Z,101107.25
2023-04-27T18:14:31.212Z,101103.69
2023-04-27T18:16:58.109Z,101124.91
2023-04-27T18:19:25.253Z,101100.97
2023-04-27T18:21:52.319Z,101080.53
2023-04-27T18:24:19.312Z,101099.88
2023-04-27T18:26:46.272Z,101107.88
2023-04-27T18:29:33.608Z,101094.63
2023-04-27T18:32:34.679Z,101143.19
2023-04-27T18:35:35.618Z,101157.28
2023-04-27T18:38:36.618Z,101159.06
2023-04-27T18:41:37.782Z,101174.06
2023-04-27T18:44:38.650Z,101162.44
2023-04-27T18:47:08.616Z,101156.91
2023-04-27T18:49:36.002Z,101172.00
2023-04-27T18:52:22.638Z,101169.34
2023-04-27T18:55:24.621Z,101190.44
2023-04-27T18:58:05.225Z,101175.25
2023-04-27T19:00:32.236Z,101175.16
2023-04-27T19:02:59.367Z,101151.97
2023-04-27T19:06:00.686Z,101225.47
2023-04-27T19:09:01.663Z,101188.97
2023-04-27T19:12:03.541Z,101199.44
2023-04-27T19:15:05.649Z,101212.00
2023-04-27T19:18:10.857Z,101218.94
2023-04-27T19:20:52.373Z,101225.88
2023-04-27T19:23:19.561Z,101226.84
2023-04-27T19:25:50.533Z,101203.63
2023-04-27T19:28:37.823Z,101197.41
2023-04-27T19:31:43.036Z,101200.84
2023-04-27T19:34:23.343Z,101238.69
2023-04-27T19:36:50.319Z,101220.91
2023-04-27T19:39:37.671Z,101249.44
2023-04-27T19:42:18.283Z,101259.31
2023-04-27T19:45:05.668Z,101263.75
2023-04-27T19:48:06.787Z,101271.44
2023-04-27T19:51:07.686Z,101270.38
2023-04-27T19:54:08.696Z,101256.84
2023-04-27T19:57:10.687Z,101265.78
2023-04-27T20:00:13.671Z,101269.81
2023-04-27T20:02:41.921Z,101263.59
2023-04-27T20:05:29.918Z,101260.09
2023-04-27T20:08:30.691Z,101265.31
2023-04-27T20:11:33.729Z,101285.66
2023-04-27T20:14:31.382Z,101289.91
2023-04-27T20:17:24.714Z,101273.03
2023-04-27T20:20:19.708Z,101260.41
2023-04-27T20:23:02.502Z,101248.97
2023-04-27T20:25:49.761Z,101273.66
2023-04-27T20:28:50.806Z,101259.28
2023-04-27T20:31:31.445Z,101251.75
2023-04-27T20:34:18.741Z,101302.47
2023-04-27T20:36:59.414Z,101255.34
2023-04-27T20:39:26.590Z,101303.97
2023-04-27T20:41:54.414Z,101242.44
2023-04-27T20:44:42.835Z,101266.34
2023-04-27T20:47:24.360Z,101311.84
2023-04-27T20:49:51.455Z,101302.06
2023-04-27T20:52:38.748Z,101302.81
2023-04-27T20:55:40.741Z,101287.47
2023-04-27T20:58:32.659Z,101287.91
2023-04-27T21:00:59.714Z,101276.94
2023-04-27T21:03:47.952Z,101262.88
2023-04-27T21:06:48.799Z,101279.38
2023-04-27T21:09:29.278Z,101295.16
2023-04-27T21:11:56.343Z,101195.91
2023-04-27T21:14:43.793Z,101277.06
2023-04-27T21:17:24.429Z,101276.47
2023-04-27T21:19:51.342Z,101300.31
2023-04-27T21:22:18.372Z,101312.63
2023-04-27T21:24:46.408Z,101266.56
2023-04-27T21:27:13.419Z,101160.50
2023-04-27T21:30:00.717Z,101308.34
2023-04-27T21:33:01.754Z,101306.19
2023-04-27T21:36:03.772Z,101289.94
2023-04-27T21:39:04.724Z,101298.56
2023-04-27T21:42:05.713Z,101322.63
2023-04-27T21:45:06.709Z,101318.78
2023-04-27T21:48:07.806Z,101293.16
2023-04-27T21:51:08.738Z,101308.16
2023-04-27T21:54:09.766Z,101307.56
2023-04-27T21:57:04.256Z,101332.47
2023-04-27T21:59:40.200Z,101333.91
2023-04-27T22:02:07.166Z,101320.09
2023-04-27T22:04:55.815Z,101253.03
2023-04-27T22:07:58.723Z,101318.38
2023-04-27T22:10:59.766Z,101307.16
2023-04-27T22:13:40.276Z,101297.72
2023-04-27T22:16:07.373Z,101345.38
2023-04-27T22:18:54.757Z,101328.34
2023-04-27T22:21:35.488Z,101330.22
2023-04-27T22:24:02.383Z,101308.34
2023-04-27T22:26:29.615Z,101334.66
2023-04-27T22:29:16.757Z,101317.84
2023-04-27T22:31:57.901Z,101299.72
2023-04-27T22:34:38.235Z,101300.09
2023-04-27T22:37:31.753Z,101333.88
2023-04-27T22:40:32.723Z,101362.63
2023-04-27T22:43:05.598Z,101369.81
2023-04-27T22:45:32.579Z,101368.88
2023-04-27T22:48:00.012Z,101379.88
2023-04-27T22:50:27.092Z,101327.47
2023-04-27T22:53:13.753Z,101350.50
2023-04-27T22:56:16.095Z,101369.06
2023-04-27T22:58:58.324Z,101364.53
2023-04-27T23:01:25.714Z,101376.41
2023-04-27T23:04:13.979Z,101342.38
2023-04-27T23:06:55.008Z,101365.16
2023-04-27T23:09:22.709Z,101362.66
2023-04-27T23:11:50.948Z,101322.91
2023-04-27T23:14:18.408Z,101355.06
2023-04-27T23:16:48.698Z,101315.75
2023-04-27T23:19:15.886Z,101359.50
2023-04-27T23:21:43.753Z,101351.94
2023-04-27T23:24:10.693Z,101340.91
2023-04-27T23:26:37.680Z,101349.53
2023-04-27T23:29:24.776Z,101367.69
2023-04-27T23:32:25.805Z,101375.25
2023-04-27T23:35:26.775Z,101363.78
2023-04-27T23:38:07.311Z,101348.50
2023-04-27T23:40:34.343Z,101328.84
2023-04-27T23:43:01.496Z,101334.28
2023-04-27T23:45:28.336Z,101373.44
2023-04-27T23:48:15.763Z,101368.66
2023-04-27T23:51:17.793Z,101376.53
2023-04-27T23:54:18.805Z,101320.03
2023-04-27T23:56:59.431Z,101362.50
2023-04-27T23:59:26.399Z,101292.88
